Time;durP1;ratioP1;P1;durP2;ratioP2;P2;SDS_P1;SDS_P2;PMS_P1;PMS_P2;Temp;Humidity;BMP_temperature;BMP_pressure;BME280_temperature;BME280_humidity;BME280_pressure;Samples;Min_cycle;Max_cycle;Signal;HPM_P1;HPM_P2
2023/12/17 00:01:59;;;;;;;34.47;28.77;;;;;;;8.61;100.00;103756.25;5037146;28;20025;-55
2023/12/17 00:04:24;;;;;;;38.17;29.95;;;;;;;8.62;100.00;103750.03;5036970;28;20029;-58
2023/12/17 00:06:49;;;;;;;37.58;30.05;;;;;;;8.64;100.00;103750.00;5041906;28;20029;-58
2023/12/17 00:09:14;;;;;;;34.47;29.65;;;;;;;8.64;100.00;103756.19;5041754;28;20479;-55
2023/12/17 00:11:41;;;;;;;34.63;29.73;;;;;;;8.64;100.00;103750.00;5041556;28;20047;-55
2023/12/17 00:14:06;;;;;;;35.85;30.27;;;;;;;8.64;100.00;103739.41;5029305;28;20445;-56
2023/12/17 00:16:32;;;;;;;33.40;29.67;;;;;;;8.64;100.00;103742.94;5041052;28;20033;-57
2023/12/17 00:18:57;;;;;;;35.00;29.40;;;;;;;8.63;100.00;103743.84;5039454;28;20131;-58
2023/12/17 00:21:22;;;;;;;36.58;30.70;;;;;;;8.65;100.00;103741.16;5035822;28;20120;-55
2023/12/17 00:23:48;;;;;;;34.28;29.00;;;;;;;8.65;100.00;103739.38;5036203;28;20044;-57
2023/12/17 00:26:13;;;;;;;35.05;29.90;;;;;;;8.65;100.00;103731.41;5039553;28;20371;-58
2023/12/17 00:28:38;;;;;;;34.63;29.35;;;;;;;8.66;100.00;103727.88;5035716;28;20018;-57
2023/12/17 00:31:03;;;;;;;33.25;28.38;;;;;;;8.67;100.00;103734.03;5040823;28;20108;-56
2023/12/17 00:33:29;;;;;;;33.50;29.10;;;;;;;8.67;100.00;103728.72;5036646;28;20029;-57
2023/12/17 00:35:54;;;;;;;33.35;28.70;;;;;;;8.68;100.00;103725.19;5037606;28;20055;-56
2023/12/17 00:38:20;;;;;;;33.47;28.95;;;;;;;8.68;100.00;103728.69;5036409;28;20036;-58
2023/12/17 00:40:45;;;;;;;34.28;28.75;;;;;;;8.68;100.00;103723.41;5039641;28;20087;-57
2023/12/17 00:43:10;;;;;;;34.30;28.13;;;;;;;8.68;100.00;103719.91;5038830;28;20029;-57
2023/12/17 00:45:35;;;;;;;33.72;28.63;;;;;;;8.68;100.00;103718.09;5038531;28;20506;-55
2023/12/17 00:48:01;;;;;;;34.17;28.15;;;;;;;8.68;100.00;103719.91;5034760;28;20179;-58
2023/12/17 00:50:26;;;;;;;33.10;28.13;;;;;;;8.69;100.00;103719.88;5037896;28;20030;-57
2023/12/17 00:52:51;;;;;;;34.72;28.73;;;;;;;8.69;100.00;103716.31;5039419;28;20029;-57
2023/12/17 00:55:17;;;;;;;36.42;29.35;;;;;;;8.68;100.00;103718.09;5042598;28;20485;-57
2023/12/17 00:57:42;;;;;;;33.42;28.50;;;;;;;8.69;100.00;103725.16;5037618;28;20307;-58
2023/12/17 01:00:08;;;;;;;36.35;29.67;;;;;;;8.67;100.00;103713.69;5040476;28;20360;-58
2023/12/17 01:02:33;;;;;;;33.67;28.15;;;;;;;8.68;100.00;103722.53;5036677;28;20116;-56
2023/12/17 01:04:58;;;;;;;37.15;28.98;;;;;;;8.68;100.00;103706.66;5035158;28;20056;-56
2023/12/17 01:07:23;;;;;;;33.10;27.73;;;;;;;8.68;100.00;103704.00;5039685;28;20475;-55
2023/12/17 01:09:49;;;;;;;37.95;30.63;;;;;;;8.68;100.00;103693.41;5038918;28;20025;-57
2023/12/17 01:12:14;;;;;;;35.45;28.23;;;;;;;8.68;100.00;103690.75;5036566;28;20052;-56
2023/12/17 01:14:39;;;;;;;38.25;28.65;;;;;;;8.68;100.00;103683.66;5038273;28;20033;-56
2023/12/17 01:17:06;;;;;;;35.65;29.15;;;;;;;8.69;100.00;103693.38;5036176;28;20449;-57
2023/12/17 01:19:34;;;;;;;37.22;29.88;;;;;;;8.70;100.00;103694.22;5036953;28;20034;-57
2023/12/17 01:22:00;;;;;;;36.97;29.73;;;;;;;8.69;100.00;103695.13;5037286;28;20037;-59
2023/12/17 01:24:25;;;;;;;36.08;29.48;;;;;;;8.69;100.00;103690.72;5034926;28;20060;-58
2023/12/17 01:26:50;;;;;;;36.58;29.38;;;;;;;8.67;100.00;103689.00;5032177;28;20027;-58
2023/12/17 01:29:16;;;;;;;36.97;29.70;;;;;;;8.68;100.00;103690.75;5034671;28;20025;-56
2023/12/17 01:31:41;;;;;;;38.03;29.98;;;;;;;8.68;100.00;103693.41;5037000;28;20401;-57
2023/12/17 01:34:07;;;;;;;36.22;28.63;;;;;;;8.67;100.00;103697.81;5036412;28;20037;-57
2023/12/17 01:36:33;;;;;;;35.08;28.52;;;;;;;8.67;100.00;103702.25;5037486;28;20021;-58
2023/12/17 01:38:58;;;;;;;37.53;28.92;;;;;;;8.67;100.00;103711.06;5035540;28;20025;-55
2023/12/17 01:41:23;;;;;;;35.53;29.60;;;;;;;8.67;100.00;103713.69;5037498;28;20029;-58
2023/12/17 01:43:49;;;;;;;34.45;27.25;;;;;;;8.67;100.00;103705.75;5039953;28;20466;-56
2023/12/17 01:46:14;;;;;;;32.47;26.77;;;;;;;8.67;100.00;103705.75;5034284;28;20037;-55
2023/12/17 01:48:41;;;;;;;33.17;26.63;;;;;;;8.67;100.00;103710.19;5035759;28;20028;-57
2023/12/17 01:51:07;;;;;;;31.15;26.48;;;;;;;8.67;100.00;103710.19;5032900;28;20454;-57
2023/12/17 01:53:33;;;;;;;33.53;26.33;;;;;;;8.66;100.00;103709.31;5035884;28;20075;-58
2023/12/17 01:55:59;;;;;;;33.78;27.40;;;;;;;8.66;100.00;103711.97;5034516;28;20109;-56
2023/12/17 01:58:25;;;;;;;33.95;28.55;;;;;;;8.68;100.00;103706.66;5036722;28;20495;-57
2023/12/17 02:00:50;;;;;;;33.45;26.77;;;;;;;8.68;100.00;103714.59;5032442;28;20116;-56
2023/12/17 02:03:16;;;;;;;32.75;27.08;;;;;;;8.68;100.00;103718.09;5038519;28;20489;-57
2023/12/17 02:05:44;;;;;;;30.85;25.70;;;;;;;8.68;100.00;103718.09;5037515;28;20414;-58
2023/12/17 02:08:09;;;;;;;30.45;25.80;;;;;;;8.72;100.00;103718.03;5036981;28;20558;-58
2023/12/17 02:10:35;;;;;;;31.70;25.70;;;;;;;8.71;100.00;103725.13;5037018;28;20044;-58
2023/12/17 02:13:02;;;;;;;34.38;26.00;;;;;;;8.72;100.00;103731.28;5034968;28;20041;-58
2023/12/17 02:15:27;;;;;;;32.55;25.35;;;;;;;8.72;100.00;103723.34;5033578;28;20041;-58
2023/12/17 02:17:52;;;;;;;32.20;25.77;;;;;;;8.70;100.00;103721.59;5035635;28;20363;-59
2023/12/17 02:20:19;;;;;;;31.80;24.77;;;;;;;8.71;100.00;103719.84;5037305;28;20478;-58
2023/12/17 02:22:50;;;;;;;30.75;25.52;;;;;;;8.73;100.00;103718.00;5032589;28;20030;-57
2023/12/17 02:25:15;;;;;;;29.55;25.20;;;;;;;8.76;100.00;103722.34;5037544;28;20501;-57
2023/12/17 02:27:43;;;;;;;33.45;26.20;;;;;;;8.77;100.00;103721.47;5036266;28;20029;-58
2023/12/17 02:30:09;;;;;;;30.70;25.70;;;;;;;8.78;100.00;103713.47;5035499;28;20029;-58
2023/12/17 02:32:34;;;;;;;31.17;25.33;;;;;;;8.81;100.00;103708.09;5035298;28;20034;-56
2023/12/17 02:34:59;;;;;;;30.33;25.48;;;;;;;8.81;100.00;103705.44;5033478;28;20462;-55
2023/12/17 02:37:25;;;;;;;30.85;24.92;;;;;;;8.85;100.00;103703.59;5032918;28;20026;-57
2023/12/17 02:39:50;;;;;;;33.25;26.10;;;;;;;8.87;100.00;103701.78;5028898;28;20030;-56
2023/12/17 02:42:17;;;;;;;31.08;24.90;;;;;;;8.86;100.00;103708.88;5040069;28;20025;-54
2023/12/17 02:44:42;;;;;;;29.95;24.65;;;;;;;8.87;100.00;103709.72;5036735;28;20026;-56
2023/12/17 02:47:07;;;;;;;30.73;25.25;;;;;;;8.88;100.00;103709.69;5034959;28;20031;-57
2023/12/17 02:49:33;;;;;;;28.77;24.65;;;;;;;8.93;100.00;103714.03;5035347;28;20097;-58
2023/12/17 02:51:59;;;;;;;30.58;24.55;;;;;;;8.92;100.00;103705.19;5037805;28;20029;-55
2023/12/17 02:54:24;;;;;;;30.52;24.55;;;;;;;8.95;100.00;103706.91;5035413;28;20037;-56
2023/12/17 02:56:52;;;;;;;28.83;23.25;;;;;;;8.95;100.00;103704.25;5036833;28;20052;-57
2023/12/17 02:59:18;;;;;;;27.17;22.98;;;;;;;8.96;100.00;103701.56;5024970;28;20060;-57
2023/12/17 03:01:43;;;;;;;28.42;23.80;;;;;;;8.97;100.00;103700.66;5041547;28;20060;-56
2023/12/17 03:04:10;;;;;;;28.63;22.80;;;;;;;8.97;100.00;103703.28;5038948;28;20049;-54
2023/12/17 03:06:36;;;;;;;25.83;21.05;;;;;;;8.97;100.00;103700.66;5041873;28;20367;-55
2023/12/17 03:09:02;;;;;;;24.92;21.10;;;;;;;8.98;100.00;103696.25;5035802;28;20040;-57
2023/12/17 03:11:27;;;;;;;23.88;20.23;;;;;;;8.97;100.00;103694.47;5044750;28;20061;-57
2023/12/17 03:13:54;;;;;;;25.10;20.13;;;;;;;8.95;100.00;103689.22;5036632;28;20502;-55
2023/12/17 03:16:19;;;;;;;23.83;19.75;;;;;;;8.96;100.00;103690.06;5038508;28;20057;-54
2023/12/17 03:18:45;;;;;;;23.33;18.73;;;;;;;8.95;100.00;103694.50;5039554;28;20029;-54
2023/12/17 03:21:12;;;;;;;21.77;17.98;;;;;;;8.94;100.00;103697.19;5039719;28;20102;-54
2023/12/17 03:23:37;;;;;;;23.02;17.05;;;;;;;8.92;100.00;103691.06;5037765;28;20021;-56
2023/12/17 03:26:03;;;;;;;21.08;17.08;;;;;;;8.93;100.00;103698.13;5043373;28;20021;-57
2023/12/17 03:28:28;;;;;;;19.08;16.58;;;;;;;8.93;100.00;103685.75;5039162;28;20027;-55
2023/12/17 03:30:54;;;;;;;17.17;15.02;;;;;;;8.93;100.00;103685.75;5039121;28;20393;-56
2023/12/17 03:33:19;;;;;;;17.92;15.07;;;;;;;8.94;100.00;103678.66;5038153;28;20076;-54
2023/12/17 03:35:44;;;;;;;16.95;14.20;;;;;;;8.92;100.00;103681.34;5041015;28;20075;-54
2023/12/17 03:38:10;;;;;;;17.25;14.68;;;;;;;8.92;100.00;103681.34;5038806;28;20108;-56
2023/12/17 03:40:35;;;;;;;17.65;14.10;;;;;;;8.91;100.00;103681.38;5037327;28;20025;-56
2023/12/17 03:43:00;;;;;;;17.08;13.88;;;;;;;8.88;100.00;103680.53;5039505;28;20018;-56
2023/12/17 03:45:26;;;;;;;15.63;13.00;;;;;;;8.85;100.00;103683.25;5038589;28;20038;-58
2023/12/17 03:47:51;;;;;;;16.40;13.50;;;;;;;8.83;100.00;103678.91;5040725;28;20044;-56
2023/12/17 03:50:17;;;;;;;16.73;13.32;;;;;;;8.79;100.00;103675.47;5039096;28;20034;-57
2023/12/17 03:52:47;;;;;;;16.35;12.70;;;;;;;8.77;100.00;103665.81;5037999;28;20389;-55
2023/12/17 03:55:13;;;;;;;15.95;12.88;;;;;;;8.76;100.00;103670.25;5038861;28;20030;-58
2023/12/17 03:57:39;;;;;;;15.90;13.55;;;;;;;8.75;100.00;103668.47;5040594;28;20505;-57
2023/12/17 04:00:05;;;;;;;17.73;12.32;;;;;;;8.74;100.00;103669.38;5038285;28;20025;-57
2023/12/17 04:02:30;;;;;;;14.90;12.63;;;;;;;8.72;100.00;103667.69;5035497;28;20044;-57
2023/12/17 04:04:56;;;;;;;15.57;13.25;;;;;;;8.71;100.00;103666.84;5036113;28;20025;-56
2023/12/17 04:07:21;;;;;;;17.05;12.68;;;;;;;8.69;100.00;103661.56;5038679;28;20041;-57
2023/12/17 04:09:47;;;;;;;17.33;12.88;;;;;;;8.67;100.00;103652.75;5039641;28;20025;-58
2023/12/17 04:12:12;;;;;;;17.23;13.20;;;;;;;8.67;100.00;103657.19;5036666;28;20085;-57
2023/12/17 04:14:39;;;;;;;17.63;12.60;;;;;;;8.65;100.00;103653.72;5036433;28;20068;-58
2023/12/17 04:17:04;;;;;;;15.45;12.63;;;;;;;8.65;100.00;103648.41;5039909;28;20442;-58
2023/12/17 04:19:29;;;;;;;17.17;12.55;;;;;;;8.64;100.00;103657.25;5038006;28;20067;-58
2023/12/17 04:21:54;;;;;;;15.65;12.82;;;;;;;8.63;100.00;103644.94;5038756;28;20041;-57
2023/12/17 04:24:20;;;;;;;16.42;13.60;;;;;;;8.61;100.00;103650.28;5033654;28;20032;-56
2023/12/17 04:26:45;;;;;;;16.00;12.70;;;;;;;8.60;100.00;103650.31;5038893;28;20056;-58
2023/12/17 04:29:11;;;;;;;18.00;12.45;;;;;;;8.59;100.00;103652.06;5036656;28;20053;-57
2023/12/17 04:31:36;;;;;;;15.25;12.43;;;;;;;8.60;100.00;103637.06;5040362;28;20049;-58
2023/12/17 04:34:01;;;;;;;19.08;13.48;;;;;;;8.58;100.00;103637.09;5038109;28;20040;-57
2023/12/17 04:36:27;;;;;;;21.02;13.70;;;;;;;8.57;100.00;103629.19;5035374;28;20395;-59
2023/12/17 04:38:52;;;;;;;15.95;13.80;;;;;;;8.55;100.00;103645.09;5041297;28;20116;-58
2023/12/17 04:41:17;;;;;;;18.45;13.80;;;;;;;8.51;100.00;103640.81;5037141;28;20029;-59
2023/12/17 04:43:43;;;;;;;17.30;13.55;;;;;;;8.49;100.00;103648.78;5035410;28;20533;-59
2023/12/17 04:46:09;;;;;;;16.48;13.63;;;;;;;8.48;100.00;103639.09;5033429;28;20112;-57
2023/12/17 04:48:34;;;;;;;18.63;14.60;;;;;;;8.47;100.00;103647.06;5036391;28;20397;-59
2023/12/17 04:50:59;;;;;;;19.38;14.48;;;;;;;8.46;100.00;103645.31;5039455;28;20018;-57
2023/12/17 04:53:24;;;;;;;20.33;15.25;;;;;;;8.44;100.00;103644.47;5040824;28;20030;-59
2023/12/17 04:55:50;;;;;;;20.38;14.55;;;;;;;8.43;100.00;103637.47;5039082;28;20030;-59
2023/12/17 04:58:15;;;;;;;17.48;14.75;;;;;;;8.43;100.00;103634.81;5020615;28;20386;-58
2023/12/17 05:00:40;;;;;;;17.63;14.00;;;;;;;8.41;100.00;103639.22;5034405;28;20017;-58
2023/12/17 05:03:06;;;;;;;21.35;14.63;;;;;;;8.40;100.00;103641.00;5042181;28;20112;-58
2023/12/17 05:05:31;;;;;;;20.77;14.70;;;;;;;8.40;100.00;103637.50;5038368;28;20028;-59
2023/12/17 05:07:56;;;;;;;19.75;15.32;;;;;;;8.41;100.00;103639.22;5036733;28;20060;-57
2023/12/17 05:10:21;;;;;;;21.10;15.32;;;;;;;8.38;100.00;103632.22;5033427;28;20029;-59
2023/12/17 05:12:47;;;;;;;24.20;15.68;;;;;;;8.38;100.00;103623.41;5040543;28;20045;-57
2023/12/17 05:15:12;;;;;;;19.48;15.43;;;;;;;8.37;100.00;103622.53;5033089;28;20025;-59
2023/12/17 05:17:37;;;;;;;22.10;15.70;;;;;;;8.34;100.00;103625.22;5037034;28;20022;-58
2023/12/17 05:20:03;;;;;;;18.58;15.50;;;;;;;8.33;100.00;103629.66;5034815;28;20475;-59
2023/12/17 05:22:28;;;;;;;20.23;15.95;;;;;;;8.33;100.00;103634.09;5037344;28;20112;-57
2023/12/17 05:24:53;;;;;;;17.90;14.77;;;;;;;8.32;100.00;103625.25;5032345;28;20033;-58
2023/12/17 05:27:19;;;;;;;18.88;15.50;;;;;;;8.29;100.00;103633.31;5038916;28;20108;-58
2023/12/17 05:29:44;;;;;;;22.05;15.73;;;;;;;8.30;100.00;103635.03;5032869;28;20032;-57
2023/12/17 05:32:09;;;;;;;22.63;16.75;;;;;;;8.29;100.00;103633.31;5029155;28;20683;-58
2023/12/17 05:34:35;;;;;;;22.05;15.98;;;;;;;8.30;100.00;103636.81;5032548;28;20032;-58
2023/12/17 05:37:00;;;;;;;20.35;15.57;;;;;;;8.30;100.00;103632.38;5033482;28;20021;-59
2023/12/17 05:39:25;;;;;;;22.35;16.42;;;;;;;8.31;100.00;103633.25;5014618;28;20520;-58
2023/12/17 05:41:50;;;;;;;20.63;16.02;;;;;;;8.32;100.00;103635.00;5032253;28;20112;-58
2023/12/17 05:44:16;;;;;;;19.23;15.50;;;;;;;8.31;100.00;103633.25;5031456;28;20029;-59
2023/12/17 05:46:41;;;;;;;22.17;16.30;;;;;;;8.31;100.00;103635.88;5032065;28;20159;-58
2023/12/17 05:49:06;;;;;;;22.55;15.95;;;;;;;8.30;100.00;103632.38;5032326;28;20391;-59
2023/12/17 05:51:32;;;;;;;18.60;14.90;;;;;;;8.30;100.00;103635.03;5033058;28;20040;-57
2023/12/17 05:53:57;;;;;;;18.13;14.93;;;;;;;8.27;100.00;103629.78;5032492;28;20025;-58
2023/12/17 05:56:23;;;;;;;17.55;13.75;;;;;;;8.26;100.00;103624.53;5033222;28;20035;-58
2023/12/17 05:58:49;;;;;;;17.48;13.50;;;;;;;8.25;100.00;103621.03;5027698;28;20212;-59
2023/12/17 06:01:14;;;;;;;16.85;13.43;;;;;;;8.24;100.00;103616.63;5031690;28;20032;-58
2023/12/17 06:03:39;;;;;;;16.30;13.15;;;;;;;8.23;100.00;103619.34;5034415;28;20022;-56
2023/12/17 06:06:05;;;;;;;13.95;11.35;;;;;;;8.21;100.00;103619.38;5032451;28;20017;-58
2023/12/17 06:08:31;;;;;;;15.57;11.82;;;;;;;8.20;100.00;103628.19;5029482;28;20022;-58
2023/12/17 06:10:56;;;;;;;13.65;11.00;;;;;;;8.19;100.00;103625.59;5033074;28;20029;-58
2023/12/17 06:13:22;;;;;;;15.05;11.48;;;;;;;8.19;100.00;103625.59;5032535;28;20123;-56
2023/12/17 06:15:47;;;;;;;14.57;10.43;;;;;;;8.18;100.00;103621.19;5033286;28;20022;-57
2023/12/17 06:18:15;;;;;;;13.80;11.18;;;;;;;8.13;100.00;103622.16;5031795;28;20064;-58
2023/12/17 06:20:40;;;;;;;12.82;10.40;;;;;;;8.12;100.00;103620.41;5026571;28;20424;-57
2023/12/17 06:23:06;;;;;;;11.85;10.27;;;;;;;8.12;100.00;103625.69;5030608;28;20025;-57
2023/12/17 06:25:31;;;;;;;14.65;10.50;;;;;;;8.13;100.00;103629.25;5032020;28;20292;-57
2023/12/17 06:27:57;;;;;;;13.60;10.30;;;;;;;8.13;100.00;103631.91;5030930;28;20449;-58
2023/12/17 06:30:22;;;;;;;14.48;10.48;;;;;;;8.13;100.00;103627.47;5030353;28;20042;-57
2023/12/17 06:32:47;;;;;;;12.65;10.40;;;;;;;8.14;100.00;103628.31;5031394;28;20394;-56
2023/12/17 06:35:13;;;;;;;13.25;10.23;;;;;;;8.15;100.00;103632.72;5033447;28;20036;-56
2023/12/17 06:37:38;;;;;;;12.85;10.40;;;;;;;8.15;100.00;103619.50;5037858;28;20116;-57
2023/12/17 06:40:04;;;;;;;13.05;10.27;;;;;;;8.18;100.00;103632.66;5028023;28;20475;-56
2023/12/17 06:42:29;;;;;;;14.20;10.90;;;;;;;8.17;100.00;103630.91;5011808;28;20033;-57
2023/12/17 06:44:54;;;;;;;12.57;10.57;;;;;;;8.17;100.00;103633.56;5033209;28;20051;-56
2023/12/17 06:47:20;;;;;;;12.88;10.77;;;;;;;8.18;100.00;103631.78;5035353;28;20044;-57
2023/12/17 06:49:45;;;;;;;14.60;10.55;;;;;;;8.18;100.00;103631.78;5033023;28;20037;-55
2023/12/17 06:52:10;;;;;;;14.63;11.10;;;;;;;8.19;100.00;103637.03;5034474;28;20025;-57
2023/12/17 06:54:36;;;;;;;14.60;11.02;;;;;;;8.21;100.00;103623.75;5033192;28;20025;-56
2023/12/17 06:57:01;;;;;;;15.63;11.80;;;;;;;8.24;100.00;103631.66;5031642;28;20025;-56
2023/12/17 06:59:26;;;;;;;17.58;12.95;;;;;;;8.24;100.00;103627.22;5039480;28;20021;-56
2023/12/17 07:01:51;;;;;;;14.40;12.88;;;;;;;8.24;100.00;103626.34;5032727;28;20029;-56
2023/12/17 07:04:17;;;;;;;15.55;12.75;;;;;;;8.24;100.00;103621.91;5034384;28;20568;-55
2023/12/17 07:06:42;;;;;;;17.65;12.93;;;;;;;8.23;100.00;103614.91;5033185;28;20017;-56
2023/12/17 07:09:07;;;;;;;18.67;12.55;;;;;;;8.21;100.00;103622.00;5031544;28;20588;-56
2023/12/17 07:11:33;;;;;;;15.02;12.35;;;;;;;8.22;100.00;103623.72;5032414;28;20034;-54
2023/12/17 07:13:58;;;;;;;14.45;11.30;;;;;;;8.21;100.00;103627.31;5029418;28;20115;-57
2023/12/17 07:16:28;;;;;;;13.98;11.38;;;;;;;8.18;100.00;103619.44;5031421;28;20029;-53
2023/12/17 07:18:54;;;;;;;14.23;11.13;;;;;;;8.19;100.00;103625.59;5031829;28;20470;-56
2023/12/17 07:21:19;;;;;;;13.80;11.13;;;;;;;8.17;100.00;103625.63;5030775;28;20044;-54
2023/12/17 07:23:44;;;;;;;14.88;11.13;;;;;;;8.17;100.00;103630.91;5030451;28;20048;-57
2023/12/17 07:26:10;;;;;;;15.05;10.75;;;;;;;8.15;100.00;103632.72;5032255;28;20405;-59
2023/12/17 07:28:35;;;;;;;12.07;10.52;;;;;;;8.12;100.00;103631.00;5037041;28;20550;-58
2023/12/17 07:31:01;;;;;;;13.50;11.50;;;;;;;8.10;100.00;103624.88;5033315;28;20067;-58
2023/12/17 07:33:26;;;;;;;14.70;12.07;;;;;;;8.06;100.00;103627.63;5035241;28;20029;-55
2023/12/17 07:35:51;;;;;;;15.55;12.57;;;;;;;8.02;100.00;103623.31;5029155;28;20022;-58
2023/12/17 07:38:17;;;;;;;17.67;12.23;;;;;;;7.97;100.00;103629.53;5033059;28;20112;-57
2023/12/17 07:40:43;;;;;;;18.13;13.18;;;;;;;7.94;100.00;103640.22;5031140;28;20028;-58
2023/12/17 07:43:09;;;;;;;15.25;12.40;;;;;;;7.90;100.00;103641.16;5034670;28;20086;-58
2023/12/17 07:45:34;;;;;;;16.08;12.98;;;;;;;7.88;100.00;103637.69;5029753;28;20035;-57
2023/12/17 07:48:00;;;;;;;16.88;13.35;;;;;;;7.82;100.00;103643.09;5033807;28;20026;-58
2023/12/17 07:50:25;;;;;;;17.25;13.23;;;;;;;7.78;100.00;103647.59;5034169;28;20017;-55
2023/12/17 07:52:51;;;;;;;18.02;13.13;;;;;;;7.76;100.00;103640.56;5033649;28;20032;-57
2023/12/17 07:55:16;;;;;;;16.80;12.82;;;;;;;7.73;100.00;103645.94;5031066;28;20041;-59
2023/12/17 07:57:41;;;;;;;15.23;11.93;;;;;;;7.70;100.00;103641.56;5031952;28;20443;-58
2023/12/17 08:00:08;;;;;;;16.25;11.90;;;;;;;7.68;100.00;103648.69;5033217;28;20156;-58
2023/12/17 08:02:33;;;;;;;15.43;11.90;;;;;;;7.64;100.00;103643.47;5030365;28;20025;-57
2023/12/17 08:04:59;;;;;;;16.35;11.65;;;;;;;7.63;100.00;103652.28;5036014;28;20379;-58
2023/12/17 08:07:24;;;;;;;14.52;11.32;;;;;;;7.62;100.00;103656.72;5029872;28;20496;-55
2023/12/17 08:09:49;;;;;;;14.95;11.10;;;;;;;7.59;100.00;103652.38;5039735;28;20028;-59
2023/12/17 08:12:15;;;;;;;14.57;10.77;;;;;;;7.57;100.00;103650.66;5033107;28;20039;-57
2023/12/17 08:14:41;;;;;;;12.43;10.23;;;;;;;7.53;100.00;103649.84;5042174;28;20037;-58
2023/12/17 08:17:07;;;;;;;13.88;11.02;;;;;;;7.50;100.00;103659.59;5037252;28;20029;-58
2023/12/17 08:19:33;;;;;;;13.13;11.02;;;;;;;7.46;100.00;103656.16;5035467;28;20021;-57
2023/12/17 08:21:58;;;;;;;13.55;11.35;;;;;;;7.43;100.00;103652.66;5034405;28;20081;-57
2023/12/17 08:24:24;;;;;;;14.50;12.00;;;;;;;7.41;100.00;103652.69;5035520;28;20032;-57
2023/12/17 08:26:50;;;;;;;15.05;11.65;;;;;;;7.37;100.00;103651.00;5038263;28;20122;-57
2023/12/17 08:29:15;;;;;;;15.80;11.45;;;;;;;7.35;100.00;103653.69;5037661;28;20486;-58
2023/12/17 08:31:45;;;;;;;14.52;11.77;;;;;;;7.34;100.00;103656.34;5035528;28;20079;-58
2023/12/17 08:34:11;;;;;;;17.20;12.20;;;;;;;7.33;100.00;103659.91;5040526;28;20407;-57
2023/12/17 08:36:36;;;;;;;16.05;11.85;;;;;;;7.32;100.00;103666.09;5033015;28;20022;-57
2023/12/17 08:39:04;;;;;;;17.08;12.27;;;;;;;7.30;100.00;103666.13;5040504;28;20025;-56
2023/12/17 08:41:31;;;;;;;14.88;12.13;;;;;;;7.29;100.00;103667.00;5037209;28;20467;-58
2023/12/17 08:43:56;;;;;;;16.50;12.20;;;;;;;7.27;100.00;103660.88;5036318;28;20126;-57
2023/12/17 08:46:22;;;;;;;15.60;12.63;;;;;;;7.28;100.00;103672.31;5033554;28;20115;-58
2023/12/17 08:48:47;;;;;;;17.98;13.70;;;;;;;7.25;100.00;103667.09;5020217;28;20033;-58
2023/12/17 08:51:12;;;;;;;15.82;12.98;;;;;;;7.21;100.00;103669.78;5042353;28;20086;-58
2023/12/17 08:53:39;;;;;;;18.23;13.40;;;;;;;7.17;100.00;103665.44;5039363;28;20032;-58
2023/12/17 08:56:08;;;;;;;17.45;12.88;;;;;;;7.13;100.00;103662.91;5036867;28;20159;-58
2023/12/17 08:58:33;;;;;;;16.40;12.52;;;;;;;7.13;100.00;103665.53;5036455;28;20367;-58
2023/12/17 09:00:58;;;;;;;16.05;12.00;;;;;;;7.12;100.00;103669.94;5036740;28;20032;-57
2023/12/17 09:03:23;;;;;;;16.42;13.02;;;;;;;7.12;100.00;103666.44;5041350;28;20103;-59
2023/12/17 09:05:49;;;;;;;16.77;12.23;;;;;;;7.11;100.00;103675.25;5038429;28;20034;-56
2023/12/17 09:08:14;;;;;;;17.10;12.85;;;;;;;7.11;100.00;103669.97;5036942;28;20044;-57
2023/12/17 09:10:39;;;;;;;17.48;12.93;;;;;;;7.10;100.00;103670.88;5039124;28;20037;-57
2023/12/17 09:13:04;;;;;;;18.02;13.55;;;;;;;7.10;100.00;103666.44;5036541;28;20061;-57
2023/12/17 09:15:30;;;;;;;18.65;14.13;;;;;;;7.09;100.00;103666.47;5035551;28;20017;-56
2023/12/17 09:17:55;;;;;;;20.92;14.25;;;;;;;7.05;100.00;103673.59;5035649;28;20082;-57
2023/12/17 09:20:20;;;;;;;19.67;14.95;;;;;;;7.02;100.00;103674.50;5030255;28;20026;-56
2023/12/17 09:22:46;;;;;;;21.45;14.95;;;;;;;6.97;100.00;103673.69;5035791;28;20466;-57
2023/12/17 09:25:11;;;;;;;20.67;14.57;;;;;;;6.96;100.00;103679.00;5034436;28;20036;-57
2023/12/17 09:27:36;;;;;;;22.25;15.68;;;;;;;6.93;100.00;103679.06;5036069;28;20033;-57
2023/12/17 09:30:02;;;;;;;19.90;15.48;;;;;;;6.91;100.00;103680.84;5035380;28;20064;-57
2023/12/17 09:32:27;;;;;;;22.42;16.00;;;;;;;6.90;100.00;103677.34;5036764;28;20025;-57
2023/12/17 09:34:52;;;;;;;21.67;15.90;;;;;;;6.87;100.00;103668.59;5035530;28;20021;-58
2023/12/17 09:37:18;;;;;;;23.95;16.38;;;;;;;6.85;100.00;103682.69;5038593;28;20473;-58
2023/12/17 09:39:43;;;;;;;24.15;16.13;;;;;;;6.83;100.00;103686.28;5034002;28;20033;-57
2023/12/17 09:42:09;;;;;;;24.23;16.85;;;;;;;6.83;100.00;103683.63;5038759;28;20055;-58
2023/12/17 09:44:34;;;;;;;25.38;17.85;;;;;;;6.80;100.00;103681.91;5037310;28;20033;-58
2023/12/17 09:47:00;;;;;;;28.58;17.55;;;;;;;6.78;100.00;103678.41;5032489;28;20402;-57
2023/12/17 09:49:25;;;;;;;26.30;17.35;;;;;;;6.78;100.00;103678.41;5036902;28;20033;-58
2023/12/17 09:52:12;;;;;;;28.30;17.33;;;;;;;6.79;100.00;103674.00;5037503;28;20021;-57
2023/12/17 09:54:38;;;;;;;28.17;18.85;;;;;;;6.75;100.00;103675.81;5034363;28;20029;-58
2023/12/17 09:57:06;;;;;;;24.80;18.33;;;;;;;6.74;100.00;103678.47;5035914;28;20040;-55
2023/12/17 09:59:31;;;;;;;26.38;17.80;;;;;;;6.72;100.00;103681.13;5039022;28;20032;-57
2023/12/17 10:01:57;;;;;;;27.48;18.30;;;;;;;6.72;100.00;103682.91;5036352;28;20494;-57
2023/12/17 10:04:24;;;;;;;24.23;17.77;;;;;;;6.69;100.00;103685.59;5018274;28;20030;-58
2023/12/17 10:06:49;;;;;;;23.08;18.08;;;;;;;6.70;100.00;103688.22;5040057;28;20435;-56
2023/12/17 10:09:15;;;;;;;27.27;19.45;;;;;;;6.68;100.00;103684.72;5036040;28;20037;-59
2023/12/17 10:11:41;;;;;;;27.15;18.88;;;;;;;6.68;100.00;103679.44;5040289;28;20042;-56
2023/12/17 10:14:19;;;;;;;29.42;19.25;;;;;;;6.68;100.00;103684.72;5039700;28;20025;-57
2023/12/17 10:16:46;;;;;;;30.90;20.17;;;;;;;6.69;100.00;103683.81;5042308;28;20469;-58
2023/12/17 10:19:12;;;;;;;26.98;19.85;;;;;;;6.65;100.00;103687.41;5020826;28;20078;-57
2023/12/17 10:21:38;;;;;;;27.83;19.73;;;;;;;6.65;100.00;103685.63;5039388;28;20025;-58
2023/12/17 10:24:03;;;;;;;31.80;20.85;;;;;;;6.65;100.00;103682.13;5044864;28;20040;-57
2023/12/17 10:26:44;;;;;;;31.58;21.52;;;;;;;6.67;100.00;103693.53;5043314;28;20040;-57
2023/12/17 10:29:13;;;;;;;32.67;21.23;;;;;;;6.67;100.00;103682.97;5039058;28;20033;-58
2023/12/17 10:31:40;;;;;;;36.88;23.48;;;;;;;6.67;100.00;103681.19;5038283;28;20022;-57
2023/12/17 10:34:19;;;;;;;36.90;23.02;;;;;;;6.70;100.00;103676.78;5043844;28;20029;-56
2023/12/17 10:36:47;;;;;;;36.85;23.40;;;;;;;6.71;100.00;103673.22;5039606;28;20098;-58
2023/12/17 10:39:14;;;;;;;34.97;23.77;;;;;;;6.73;100.00;103668.78;5040729;28;20040;-56
2023/12/17 10:41:41;;;;;;;38.20;23.42;;;;;;;6.75;100.00;103664.38;5038695;28;20026;-56
2023/12/17 10:44:10;;;;;;;38.70;24.67;;;;;;;6.78;100.00;103662.56;5040014;28;20028;-56
2023/12/17 10:46:36;;;;;;;36.25;23.35;;;;;;;6.81;100.00;103659.88;5039706;28;20033;-56
2023/12/17 10:49:05;;;;;;;39.00;24.58;;;;;;;6.84;100.00;103649.28;5044853;28;20444;-57
2023/12/17 10:51:34;;;;;;;37.95;23.55;;;;;;;6.88;100.00;103652.72;5037447;28;20029;-55
2023/12/17 10:53:59;;;;;;;37.55;22.50;;;;;;;6.94;100.00;103644.69;5041668;28;20502;-56
2023/12/17 10:56:26;;;;;;;38.58;23.63;;;;;;;7.00;100.00;103638.44;5038226;28;20108;-55
2023/12/17 10:58:53;;;;;;;34.75;21.73;;;;;;;7.04;100.00;103633.09;5037803;28;20032;-57
2023/12/17 11:01:19;;;;;;;34.42;19.88;;;;;;;7.07;100.00;103642.72;5032381;28;20490;-56
2023/12/17 11:03:45;;;;;;;34.67;21.25;;;;;;;7.11;100.00;103638.25;5038559;28;20108;-57